createdAt,value
2022-09-04T00:01:54.179Z,95.90
2022-09-04T00:05:17.275Z,96.17
2022-09-04T00:08:35.147Z,96.37
2022-09-04T00:12:05.715Z,96.62
2022-09-04T00:15:03.843Z,96.81
2022-09-04T00:18:05.779Z,97.48
2022-09-04T00:21:26.044Z,97.71
2022-09-04T00:24:18.691Z,98.03
2022-09-04T00:27:10.970Z,98.30
2022-09-04T00:30:03.373Z,98.57
2022-09-04T00:33:01.681Z,99.25
2022-09-04T00:35:56.220Z,99.37
2022-09-04T00:38:58.599Z,99.18
2022-09-04T00:42:07.414Z,99.71
2022-09-04T00:45:16.285Z,99.78
2022-09-04T00:48:18.620Z,100.00
2022-09-04T00:51:48.901Z,100.00
2022-09-04T00:54:52.817Z,100.00
2022-09-04T00:57:49.896Z,100.00
2022-09-04T01:00:37.088Z,100.00
2022-09-04T01:03:30.730Z,100.00
2022-09-04T01:06:41.398Z,100.00
2022-09-04T01:09:44.208Z,100.00
2022-09-04T01:12:34.059Z,100.00
2022-09-04T01:15:58.455Z,100.00
2022-09-04T01:19:05.243Z,100.00
2022-09-04T01:22:12.340Z,100.00
2022-09-04T01:25:36.193Z,100.00
2022-09-04T01:28:55.452Z,100.00
2022-09-04T01:31:55.577Z,100.00
2022-09-04T01:35:00.975Z,100.00
2022-09-04T01:38:25.687Z,100.00
2022-09-04T01:41:03.555Z,100.00
2022-09-04T01:43:33.200Z,100.00
2022-09-04T01:49:57.388Z,100.00
2022-09-04T01:52:30.203Z,100.00
2022-09-04T01:55:25.695Z,100.00
2022-09-04T01:58:30.272Z,100.00
2022-09-04T02:01:38.592Z,100.00
2022-09-04T02:04:28.746Z,100.00
2022-09-04T02:07:24.455Z,100.00
2022-09-04T02:10:25.782Z,100.00
2022-09-04T02:13:22.522Z,100.00
2022-09-04T02:16:26.812Z,100.00
2022-09-04T02:19:55.746Z,100.00
2022-09-04T02:23:03.659Z,100.00
2022-09-04T02:26:11.379Z,100.00
2022-09-04T02:29:23.629Z,100.00
2022-09-04T02:32:18.799Z,100.00
2022-09-04T02:35:32.837Z,100.00
2022-09-04T02:38:38.323Z,100.00
2022-09-04T02:41:37.383Z,100.00
2022-09-04T02:44:45.139Z,100.00
2022-09-04T02:47:53.758Z,100.00
2022-09-04T02:51:14.085Z,100.00
2022-09-04T02:54:28.190Z,100.00
2022-09-04T02:57:44.026Z,100.00
2022-09-04T06:04:23.237Z,100.00
2022-09-04T06:07:23.767Z,100.00
2022-09-04T06:09:59.964Z,100.00
2022-09-04T06:12:47.939Z,100.00
2022-09-04T06:15:58.258Z,100.00
2022-09-04T06:22:50.151Z,100.00
2022-09-04T06:25:48.410Z,100.00
2022-09-04T06:28:50.524Z,100.00
2022-09-04T06:31:20.142Z,100.00
2022-09-04T06:34:34.322Z,100.00
2022-09-04T06:37:36.682Z,100.00
2022-09-04T06:40:11.174Z,100.00
2022-09-04T06:42:48.000Z,100.00
2022-09-04T06:45:17.728Z,100.00
2022-09-04T06:47:47.521Z,100.00
2022-09-04T06:50:59.362Z,100.00
2022-09-04T06:54:11.779Z,100.00
2022-09-04T06:56:56.595Z,100.00
2022-09-04T07:03:42.695Z,100.00
2022-09-04T07:10:43.636Z,100.00
2022-09-04T07:13:31.844Z,100.00
2022-09-04T07:21:22.962Z,100.00
2022-09-04T07:28:33.751Z,100.00
2022-09-04T07:31:29.444Z,100.00
2022-09-04T07:34:46.965Z,100.00
2022-09-04T07:37:58.867Z,100.00
2022-09-04T07:40:50.981Z,100.00
2022-09-04T07:51:10.722Z,100.00
2022-09-04T07:54:25.135Z,100.00
2022-09-04T07:57:39.585Z,100.00
2022-09-04T08:01:04.156Z,100.00
2022-09-04T08:03:53.742Z,100.00
2022-09-04T08:12:16.894Z,100.00
2022-09-04T08:15:15.873Z,100.00
2022-09-04T08:18:01.812Z,100.00
2022-09-04T08:21:06.415Z,100.00
2022-09-04T08:24:08.464Z,100.00
2022-09-04T08:27:10.011Z,100.00
2022-09-04T08:30:07.939Z,100.00
2022-09-04T08:32:53.395Z,100.00
2022-09-04T08:39:30.328Z,100.00
2022-09-04T08:42:44.820Z,100.00
2022-09-04T08:45:55.390Z,100.00
2022-09-04T08:53:15.087Z,100.00
2022-09-04T08:56:18.687Z,100.00
2022-09-04T08:59:39.996Z,100.00
2022-09-04T09:02:45.660Z,100.00
2022-09-04T09:05:43.586Z,100.00
2022-09-04T09:08:51.865Z,100.00
2022-09-04T09:12:27.173Z,100.00
2022-09-04T09:15:46.744Z,100.00
2022-09-04T09:19:07.125Z,100.00
2022-09-04T09:22:28.231Z,100.00
2022-09-04T09:25:22.017Z,96.35
2022-09-04T09:29:06.282Z,99.02
2022-09-04T09:36:27.837Z,100.00
2022-09-04T09:39:46.810Z,100.00
2022-09-04T09:47:04.909Z,100.00
2022-09-04T09:57:01.947Z,100.00
2022-09-04T09:59:55.908Z,100.00
2022-09-04T10:02:31.633Z,95.29
2022-09-04T10:05:19.535Z,95.64
2022-09-04T10:08:35.605Z,93.29
2022-09-04T10:11:41.678Z,91.17
2022-09-04T10:15:04.248Z,90.22
2022-09-04T10:18:13.767Z,86.02
2022-09-04T10:21:13.062Z,87.64
2022-09-04T10:24:24.473Z,85.58
2022-09-04T10:27:14.418Z,85.41
2022-09-04T10:30:07.552Z,86.62
2022-09-04T10:33:21.587Z,89.33
2022-09-04T10:36:31.887Z,92.93
2022-09-04T10:40:04.404Z,94.13
2022-09-04T10:43:26.519Z,93.98
2022-09-04T10:46:26.498Z,98.11
2022-09-04T10:49:19.266Z,90.58
2022-09-04T10:52:24.659Z,88.26
2022-09-04T10:55:56.584Z,88.38
2022-09-04T10:59:13.419Z,90.63
2022-09-04T11:02:15.779Z,89.48
2022-09-04T11:05:26.793Z,91.89
2022-09-04T11:08:36.545Z,92.04
2022-09-04T11:11:45.155Z,93.24
2022-09-04T11:14:59.824Z,93.33
2022-09-04T11:18:24.609Z,93.11
2022-09-04T11:21:43.147Z,91.59
2022-09-04T11:24:42.225Z,89.69
2022-09-04T11:28:06.954Z,89.07
2022-09-04T11:31:13.443Z,88.64
2022-09-04T11:34:14.016Z,89.16
2022-09-04T11:36:59.065Z,88.22
2022-09-04T11:40:10.541Z,87.10
2022-09-04T11:47:23.449Z,84.06
2022-09-04T11:50:47.716Z,82.39
2022-09-04T11:54:20.566Z,81.38
2022-09-04T11:57:13.901Z,80.02
2022-09-04T12:00:07.704Z,79.33
2022-09-04T12:03:27.961Z,77.07
2022-09-04T12:06:44.303Z,76.66
2022-09-04T12:10:01.309Z,74.72
2022-09-04T12:41:50.632Z,72.28
2022-09-04T12:44:59.983Z,72.60
2022-09-04T12:47:54.402Z,72.07
2022-09-04T12:51:10.047Z,72.48
2022-09-04T12:53:57.582Z,72.09
2022-09-04T12:57:08.973Z,72.07
2022-09-04T13:00:15.508Z,71.93
2022-09-04T13:03:29.493Z,71.60
2022-09-04T13:06:27.388Z,71.78
2022-09-04T13:09:05.983Z,71.05
2022-09-04T13:11:50.661Z,71.28
2022-09-04T13:14:27.042Z,69.74
2022-09-04T13:17:18.962Z,68.95
2022-09-04T13:19:48.537Z,67.72
2022-09-04T13:22:33.706Z,67.51
2022-09-04T13:25:56.126Z,67.36
2022-09-04T13:28:41.132Z,67.65
2022-09-04T13:31:19.733Z,67.91
2022-09-04T13:33:56.075Z,67.08
2022-09-04T13:36:23.806Z,66.72
2022-09-04T13:39:04.986Z,66.40
2022-09-04T13:42:10.902Z,65.96
2022-09-04T13:44:41.076Z,66.17
2022-09-04T13:51:20.240Z,66.34
2022-09-04T13:54:18.460Z,66.91
2022-09-04T14:01:23.981Z,65.73
2022-09-04T14:04:16.924Z,65.72
2022-09-04T14:07:14.701Z,65.60
2022-09-04T14:10:09.105Z,64.50
2022-09-04T17:40:39.279Z,61.73
2022-09-04T17:40:57.003Z,62.08
2022-09-04T17:44:07.067Z,62.47
2022-09-04T17:50:58.427Z,63.72
2022-09-04T17:53:38.713Z,63.52
2022-09-04T17:56:18.617Z,64.08
2022-09-04T18:02:49.831Z,65.22
2022-09-04T18:10:01.062Z,65.52
2022-09-04T18:13:36.484Z,66.05
2022-09-04T18:20:28.179Z,66.22
2022-09-04T18:23:07.316Z,66.44
2022-09-04T18:25:55.180Z,67.14
2022-09-04T18:28:33.875Z,67.20
2022-09-04T18:37:05.990Z,67.29
2022-09-04T18:37:17.798Z,67.85
2022-09-04T18:37:46.158Z,68.16
2022-09-04T18:47:08.439Z,68.49
2022-09-04T18:50:24.013Z,68.61
2022-09-04T18:51:33.401Z,69.35
2022-09-04T18:54:29.779Z,69.77
2022-09-04T18:57:48.687Z,70.22
2022-09-04T19:00:46.766Z,70.85
2022-09-04T19:04:19.470Z,71.34
2022-09-04T19:07:27.654Z,71.62
2022-09-04T19:10:32.732Z,72.17
2022-09-04T19:13:28.961Z,72.43
2022-09-04T19:16:37.584Z,73.10
2022-09-04T19:19:26.779Z,73.13
2022-09-04T19:22:28.472Z,73.43
2022-09-04T19:25:20.846Z,73.70
2022-09-04T19:28:17.069Z,73.87
2022-09-04T19:31:29.998Z,74.33
2022-09-04T19:34:48.645Z,74.50
2022-09-04T19:43:45.321Z,74.92
2022-09-04T19:46:11.289Z,75.31
2022-09-04T19:48:27.737Z,75.55
2022-09-04T19:53:22.584Z,75.29
2022-09-04T19:54:59.843Z,75.62
2022-09-04T19:58:15.283Z,76.17
2022-09-04T20:01:07.263Z,76.52
2022-09-04T20:04:04.119Z,77.11
2022-09-04T20:07:01.528Z,77.43
2022-09-04T20:14:13.823Z,78.64
2022-09-04T20:17:31.094Z,79.03
2022-09-04T20:20:23.316Z,78.83
2022-09-04T20:23:33.833Z,79.46
2022-09-04T20:26:28.531Z,79.33
2022-09-04T20:29:22.449Z,80.02
2022-09-04T20:32:26.888Z,80.73
2022-09-04T20:35:22.329Z,81.71
2022-09-04T20:38:30.695Z,82.22
2022-09-04T20:42:10.007Z,82.72
2022-09-04T20:47:23.065Z,82.94
2022-09-04T20:52:58.763Z,83.71
2022-09-04T20:55:36.581Z,84.62
2022-09-04T21:03:13.511Z,84.60
2022-09-04T21:05:50.673Z,86.14
2022-09-04T21:08:38.070Z,86.18
2022-09-04T21:11:40.787Z,86.45
2022-09-04T21:14:09.816Z,86.47
2022-09-04T21:16:45.839Z,87.20
2022-09-04T21:19:33.110Z,87.31
2022-09-04T21:22:38.643Z,87.39
2022-09-04T21:25:18.643Z,86.97
2022-09-04T21:28:03.690Z,86.99
2022-09-04T21:31:01.154Z,87.34
2022-09-04T21:34:01.293Z,87.32
2022-09-04T21:36:39.207Z,87.57
2022-09-04T21:39:17.859Z,87.91
2022-09-04T21:42:16.522Z,87.83
2022-09-04T21:45:00.100Z,88.06
2022-09-04T21:47:30.477Z,88.18
2022-09-04T21:58:04.935Z,88.72
2022-09-04T22:02:37.797Z,89.00
2022-09-04T22:02:42.415Z,88.45
2022-09-04T22:05:18.515Z,89.25
2022-09-04T22:12:58.735Z,89.95
2022-09-04T22:19:46.713Z,91.73
2022-09-04T22:27:08.279Z,92.01
2022-09-04T22:30:03.867Z,91.99
2022-09-04T22:33:03.391Z,92.17
2022-09-04T22:36:18.372Z,92.65
2022-09-04T22:39:12.334Z,92.82
2022-09-04T22:49:25.711Z,93.43
2022-09-04T22:52:23.840Z,93.80
2022-09-04T22:55:29.388Z,93.74
2022-09-04T22:58:31.212Z,93.79
2022-09-04T23:01:28.969Z,93.94
2022-09-04T23:04:30.971Z,94.12
2022-09-04T23:11:46.674Z,94.55
2022-09-04T23:13:51.500Z,94.67
2022-09-04T23:14:00.386Z,94.93
2022-09-04T23:16:15.014Z,95.37
2022-09-04T23:24:02.578Z,95.35
2022-09-04T23:26:35.820Z,95.04
2022-09-04T23:26:45.163Z,94.96
2022-09-04T23:30:04.295Z,95.02
2022-09-04T23:33:16.149Z,94.63
2022-09-04T23:37:02.085Z,94.82
2022-09-04T23:40:15.053Z,94.21
2022-09-04T23:43:36.231Z,93.39
2022-09-04T23:46:32.251Z,92.77
2022-09-04T23:49:46.552Z,92.29
2022-09-04T23:52:49.614Z,92.54
2022-09-04T23:56:01.000Z,92.72
2022-09-04T23:59:22.618Z,93.65
